• Join FlightAware (Why Join?)
  • Login
  • US Flag 
06:15PM EDT


 

Airport Tracker/Info


-or-


 

Live Flight TrackerFlight Track Log ✈ ASQ4209 ✈ 27-May-2013 ✈ KEWR - CYHZ

Flight Track Log - Related Links

Times and Time Zones

All times are in EDT time to prevent confusion due to time zone crossing. See the ASQ4209 flight status page for this flight to view local times or setup timezone preferences in your user account.

Time Position Orientation Groundspeed Altitude Reporting Facility
EDT Latitude Longitude Course Direction KTS MPH feet Rate Location/Type
07:51PM 40.6333 -74.2167 53° Northeast 208 239 2,600  Level New York TRACON
07:52PM 40.6667 -74.2833 303° West 241 277 4,000 1,560 Climbing New York TRACON
07:53PM 40.9650 -73.7533 56° Northeast  Level FlightAware Approximate
07:53PM 40.7333 -74.3000 349° North 276 318 5,800  Level New York TRACON
07:54PM 41.0335 -73.6497 56° Northeast  Level FlightAware Approximate
07:54PM 40.7500 -74.2167 75° East 265 305 6,000  Level New York TRACON
07:55PM 41.1001 -73.5367 46° Northeast  Level FlightAware Approximate
07:56PM 41.1718 -73.4286 53° Northeast  Level FlightAware Approximate
07:56PM 40.7722 -74.0158 82° East 274 315 6,500  Level Boston Center
07:57PM 40.8128 -73.9347 57° Northeast 267 307 7,900 1,800 Climbing Boston Center
07:58PM 40.8661 -73.8564 48° Northeast 273 314 10,100 1,500 Climbing Boston Center
07:59PM 40.9275 -73.7725 46° Northeast 288 331 11,000 900 Climbing Boston Center
08:00PM 40.9953 -73.6747 47° Northeast 324 373 11,900 1,080 Climbing Boston Center
08:01PM 41.0672 -73.5772 46° Northeast 361 415 13,200 1,200 Climbing Boston Center
08:02PM 41.1389 -73.4764 47° Northeast 372 428 14,400 1,020 Climbing Boston Center
08:03PM 41.2025 -73.3617 54° Northeast 372 428 15,300 960 Climbing Boston Center
08:04PM 41.2681 -73.2436 54° Northeast 384 442 16,400 1,080 Climbing Boston Center
08:05PM 41.3314 -73.1256 54° Northeast 384 442 17,500 900 Climbing Boston Center
08:06PM 41.3944 -73.0100 54° Northeast 384 442 18,300 900 Climbing Boston Center
08:07PM 41.4639 -72.8833 54° Northeast 395 455 19,300 1,020 Climbing Boston Center
08:08PM 41.5247 -72.7644 56° Northeast 401 461 20,400 1,020 Climbing Boston Center
08:09PM 41.5894 -72.6428 55° Northeast 396 456 21,400 1,020 Climbing Boston Center
08:10PM 41.6542 -72.5178 55° Northeast 401 461 22,500 1,020 Climbing Boston Center
08:11PM 41.7125 -72.3872 59° Northeast 406 467 23,500 1,020 Climbing Boston Center
08:12PM 41.7708 -72.2564 59° Northeast 406 467 24,600 1,020 Climbing Boston Center
08:13PM 41.8394 -72.1392 52° Northeast 406 467 25,600 960 Climbing Boston Center
08:14PM 41.9267 -72.0494 37° Northeast 387 445 26,600 1,020 Climbing Boston Center
08:15PM 42.0117 -71.9650 36° Northeast 387 445 27,700 1,020 Climbing Boston Center
08:16PM 42.0967 -71.8750 38° Northeast 377 434 28,700 960 Climbing Boston Center
08:17PM 42.1797 -71.7900 37° Northeast 377 434 29,700 1,020 Climbing Boston Center
08:18PM 42.2647 -71.7022 37° Northeast 377 434 30,800 1,020 Climbing Boston Center
08:19PM 42.3517 -71.6142 37° Northeast 383 441 31,800 960 Climbing Boston Center
08:20PM 42.4406 -71.5286 35° Northeast 389 448 32,800 1,020 Climbing Boston Center
08:21PM 42.5272 -71.4344 39° Northeast 394 453 33,900 1,020 Climbing Boston Center
08:22PM 42.6078 -71.3483 38° Northeast 386 444 34,900 540 Climbing Boston Center
08:23PM 42.6986 -71.2536 37° Northeast 393 452 35,000  Climbing Boston Center
08:24PM 42.7872 -71.1614 37° Northeast 393 452 35,000  Level Boston Center
08:25PM 42.8797 -71.0603 39° Northeast 406 467 35,000  Level Boston Center
08:26PM 42.9594 -70.9392 48° Northeast 417 480 35,000  Level Boston Center
08:27PM 43.0072 -70.7792 68° East 430 495 35,000  Level Boston Center
08:28PM 43.0550 -70.6217 67° East 435 501 35,000  Level Boston Center
08:29PM 43.1003 -70.4639 68° East 441 507 35,000  Level Boston Center
08:30PM 43.1475 -70.3058 68° East 446 513 35,000  Level Boston Center
08:31PM 43.1942 -70.1444 68° East 446 513 35,000  Level Boston Center
08:32PM 43.2331 -70.0036 69° East 446 513 35,000 -360 Level Boston Center
08:33PM 43.2794 -69.8447 68° East 446 513 34,300 -540 Descending Boston Center
08:34PM 43.3339 -69.6711 67° East 441 507 34,000 -180 Descending Boston Center
08:35PM 43.3742 -69.5294 69° East 441 507 34,000  Level Boston Center
08:36PM 43.4178 -69.3669 70° East 441 507 34,000  Level Boston Center
08:37PM 43.4653 -69.2017 68° East 446 513 34,000  Level Boston Center
08:38PM 43.5033 -69.0708 68° East 451 519 34,000  Level Boston Center
08:39PM 43.5597 -68.8728 68° East 456 525 34,000  Level Boston Center
08:40PM 43.5833 -68.7500 75° East 470 541 34,000  Level Moncton Center
08:41PM 43.6167 -68.5833 75° East 480 552 34,000  Level Moncton Center
08:41PM 43.6489 -68.5400 44° Northeast 456 525 34,000 -120 Level Boston Center
08:42PM 43.6972 -68.3703 68° East 462 532 33,900  Descending Boston Center
08:43PM 43.7167 -68.2333 79° East 470 541 34,000 60 Climbing Moncton Center
08:44PM 43.7500 -68.0833 73° East 460 529 34,000  Level Moncton Center
08:45PM 43.8167 -67.9167 61° Northeast 450 518 34,000  Level Moncton Center
08:46PM 43.8500 -67.7500 74° East 460 529 34,000  Level Moncton Center
08:47PM 43.8833 -67.5667 76° East 460 529 34,000  Level Moncton Center
08:48PM 43.9500 -67.4167 58° Northeast 460 529 34,000  Level Moncton Center
08:49PM 43.9833 -67.2333 76° East 460 529 34,000  Level Moncton Center
08:50PM 44.0167 -67.0667 74° East 460 529 34,000  Level Moncton Center
08:51PM 44.0833 -66.8833 63° Northeast 460 529 34,000  Level Moncton Center
08:52PM 44.1167 -66.7333 73° East 460 529 34,000  Level Moncton Center
08:53PM 44.1500 -66.5667 74° East 460 529 34,000  Level Moncton Center
08:54PM 44.2000 -66.4000 67° East 460 529 34,000  Level Moncton Center
08:55PM 44.2333 -66.2333 74° East 460 529 34,000  Level Moncton Center
08:56PM 44.2833 -66.0500 69° East 460 529 34,000  Level Moncton Center
08:57PM 44.3333 -65.9000 65° Northeast 460 529 34,000  Level Moncton Center
08:58PM 44.3667 -65.7333 74° East 460 529 34,000  Level Moncton Center
08:59PM 44.4167 -65.5500 69° East 460 529 34,000 -300 Level Moncton Center
09:00PM 44.4500 -65.3833 74° East 460 529 33,500 -900 Descending Moncton Center
09:01PM 44.4833 -65.2167 74° East 460 529 32,200 -1,800 Descending Moncton Center
09:02PM 44.5333 -65.0500 67° East 450 518 29,900 -2,400 Descending Moncton Center
09:03PM 44.5667 -64.8833 74° East 460 529 27,400 -2,700 Descending Moncton Center
09:04PM 44.6000 -64.7000 76° East 460 529 24,500 -2,760 Descending Moncton Center
09:05PM 44.6500 -64.5333 67° East 460 529 21,900 -2,760 Descending Moncton Center
09:06PM 44.6500 -64.3667 90° East 440 506 19,000 -3,060 Descending Moncton Center
09:07PM 44.6667 -64.2167 81° East 410 472 15,800 -3,180 Descending Moncton Center
09:08PM 44.6667 -64.0667 90° East 390 449 12,700 -2,580 Descending Moncton Center
09:09PM 44.6833 -63.9000 82° East 350 403 10,700 -1,500 Descending Moncton Center
09:10PM 44.6833 -63.7833 90° East 310 357 9,800 -1,200 Descending Moncton Center
09:11PM 44.6833 -63.6833 90° East 290 334 8,400 -1,680 Descending Moncton Center
09:12PM 44.7000 -63.5667 79° East 270 311 6,500 -1,860 Descending Moncton Center
09:13PM 44.7000 -63.4833 90° East 260 299 4,700 -1,080 Descending Moncton Center
09:14PM 44.7000 -63.3667 90° East 250 288 4,400 -660 Descending Moncton Center
09:15PM 44.7500 -63.3167 35° Northeast 220 253 3,400 -1,020 Descending Moncton Center